EGPO - Stornoway
Distance from station: E 5mi, 14km
Updated: 07/15/2018 8:50pm
Mostly Cloudy
Mostly Cloudy
 Wind from SSW
Wind: SSW 14 mph , 22 km/h
Temperature: 54°F , 12°C
Dew Point: 52°F , 11°C
Humidity: 94%
Barometer: 29.77 inHg , 1008 hPa
Clouds: Mostly Cloudy
Visibility: 6 miles , 10 km
Cloud details: Mostly Cloudy 1300 ft
2018/07/16 03:50 EGPO 160350Z AUTO 20012KT 9999 BKN013/// 12/11 Q1008